Metar Cercanos

 

LEPA - Palma De Mallorc, Spain
Distance from station: ONO 38km
Actualización: 15/12/2017 11:00
Parcialmente nuboso
Parcialmente nuboso
 Viento del O
Viento: O 26 km/h
Temperatura: 17°C
Rocío: 12°C
Humedad: 73%
Barómetro: 1007 hPa
Clouds: Parcialmente nuboso
Visibility: 10 km
Cloud details: Parcialmente nuboso 914 m
2017/12/15 10:00 LEPA 151000Z 27014KT 240V300 9999 SCT030 17/12 Q1007 NOSIG
LEMH - Mahon/Menorca Is, Spain
Distance from station: ENE 105km
Actualización: 15/12/2017 11:00
Muy nuboso
Muy nuboso
 Viento del O
Viento: O 20 km/h
Temperatura: 16°C
Rocío: 12°C
Humedad: 77%
Barómetro: 1007 hPa
Clouds: Muy nuboso
Visibility: 10 km
Cloud details: Few Clouds 914 m
Muy nuboso 1372 m
2017/12/15 10:00 LEMH 151000Z 27011KT 240V310 9999 FEW030 BKN045 16/12 Q1007
 
LEIB - Ibiza/Es Codola, Spain
Distance from station: OSO 165km
Actualización: 15/12/2017 11:00
Few Clouds
Few Clouds
 Viento del OSO
Viento: OSO 37 km/h, Racha: 61 km/h
Temperatura: 18°C
Rocío: 9°C
Humedad: 56%
Barómetro: 1010 hPa
Clouds: Few Clouds
Visibility: 10 km
Cloud details: Few Clouds 914 m
2017/12/15 10:00 LEIB 151000Z 25020G33KT 210V280 9999 FEW030 18/09 Q1010 NOSIG
LEBL - Barcelona Airpor, Spain
Distance from station: NNO 225km
Actualización: 15/12/2017 11:00
Few Clouds
Few Clouds
 Viento del O
Viento: O 19 km/h
Temperatura: 15°C
Rocío: 2°C
Humedad: 42%
Barómetro: 1006 hPa
Clouds: Few Clouds
Visibility: 10 km
Cloud details: Few Clouds 914 m
2017/12/15 10:00 LEBL 151000Z 26010KT 9999 FEW030 15/02 Q1006 NOSIG
 
LEVC - Valencia (civ/Mi, Spain
Distance from station: NO 188km
Actualización: 15/12/2017 11:00
Few Clouds
Few Clouds
 Viento del O
Viento: O 26 km/h, Racha: 46 km/h
Temperatura: 17°C
Rocío: 5°C
Humedad: 45%
Barómetro: 1011 hPa
Clouds: Few Clouds
Visibility: 10 km
Cloud details: Few Clouds 1219 m
2017/12/15 10:00 LEVC 151000Z 28014G25KT 9999 FEW040 17/05 Q1011 NOSIG
LEGE - Gerona/Costa Bra, Spain
Distance from station: N 276km
Actualización: 15/12/2017 11:00
Few Clouds
Few Clouds
 Viento del NE
Viento: NE 19 km/h
Temperatura: 9°C
Sensación frio: 6°C
Rocío: 4°C
Humedad: 71%
Barómetro: 1006 hPa
Clouds: Few Clouds
Visibility: 10 km
Cloud details: Muy nuboso 610 m
Few Clouds 914 m
2017/12/15 10:00 LEGE 151000Z 05010KT 9999 BKN020 FEW030TCU 09/04 Q1006
 
LEAL - Alicante/El Alte, Spain
Distance from station: OSO 344km
Actualización: 15/12/2017 11:00
Despejado
Despejado
 Viento del OSO
Viento: OSO 19 km/h
Temperatura: 18°C
Rocío: 8°C
Humedad: 52%
Barómetro: 1010 hPa
Resumen: Despejado
Visibility: greater than 10 km
2017/12/15 10:00 LEAL 151000Z 25010KT 220V280 CAVOK 18/08 Q1010 NOSIG
LEAM - Almeria Airport, Spain
Distance from station: SSO 56km
Actualización: 15/12/2017 11:00
Despejado
Despejado
 Viento del varies
Viento: varies 4 km/h
Temperatura: 15°C
Rocío: 12°C
Humedad: 82%
Barómetro: 1013 hPa
Resumen: Despejado
Visibility: greater than 10 km
2017/12/15 10:00 LEAM 151000Z VRB02KT CAVOK 15/12 Q1013
 
LEZG - Zaragoza (mil/Ci, Spain
Distance from station: NO 431km
Actualización: 15/12/2017 11:00
Muy nuboso
Muy nuboso
 Viento del ONO
Viento: ONO 22 km/h
Temperatura: 9°C
Sensación frio: 6°C
Rocío: 5°C
Humedad: 76%
Barómetro: 1012 hPa
Clouds: Muy nuboso
Visibility: 10 km
Cloud details: Few Clouds 914 m
Muy nuboso 1524 m
2017/12/15 10:00 LEZG 151000Z 29012KT 260V320 9999 FEW030 BKN050 09/05 Q1012
LEMD - Madrid/Barajas, Spain
Distance from station: ONO 234km
Actualización: 15/12/2017 11:00
Muy nuboso
Muy nuboso
 Viento del NO
Viento: NO 6 km/h
Temperatura: 10°C
Rocío: 8°C
Humedad: 88%
Barómetro: 1012 hPa
Clouds: Muy nuboso
Visibility: 10 km
Cloud details: Few Clouds 457 m
Muy nuboso 1524 m
2017/12/15 10:00 LEMD 151000Z 31003KT 240V010 9999 FEW015 BKN050 10/08 Q1012 NOSIG
 
LEGR - Granada Airport, Spain
Distance from station: OSO 62km
Actualización: 15/12/2017 11:00
Muy nuboso
Muy nuboso
 Viento del varies
Viento: varies 2 km/h
Temperatura: 11°C
Rocío: 10°C
Humedad: 94%
Barómetro: 1018 hPa
Clouds: Muy nuboso
Visibility: 8 km
Cloud details: Few Clouds 61 m
Muy nuboso 183 m
Muy nuboso 762 m
2017/12/15 10:00 LEGR 151000Z VRB01KT 8000 FEW002 BKN006 BKN025 11/10 Q1018
LEMG - Malaga (civ/Mil), Spain
Distance from station: OSO 227km
Actualización: 15/12/2017 11:00
Muy nuboso
Muy nuboso
 Viento del NNO
Viento: NNO 7 km/h
Temperatura: 18°C
Rocío: 12°C
Humedad: 68%
Barómetro: 1017 hPa
Clouds: Muy nuboso
Visibility: 10 km
Cloud details: Parcialmente nuboso 1219 m
Muy nuboso 1829 m
2017/12/15 10:00 LEMG 151000Z 33004KT 300V360 9999 SCT040 BKN060 18/12 Q1017 NOSIG
 
LEZL - Sevilla (civ/Mil, Spain
Distance from station: S 318km
Actualización: 15/12/2017 11:00
Muy nuboso
Muy nuboso
 Viento del SO
Viento: SO 13 km/h
Temperatura: 16°C
Rocío: 14°C
Humedad: 88%
Barómetro: 1018 hPa
Clouds: Muy nuboso
Visibility: 10 km
Cloud details: Few Clouds 244 m
Muy nuboso 396 m
2017/12/15 10:00 LEZL 151000Z 22007KT 9999 FEW008 BKN013 16/14 Q1018 NOSIG
LEVT - Vitoria, Spain
Distance from station: NO 226km
Actualización: 15/12/2017 11:00
Muy nuboso
Muy nuboso
 Viento del O
Viento: O 4 km/h
Temperatura: 5°C
Rocío: 3°C
Humedad: 87%
Barómetro: 1012 hPa
Clouds: Muy nuboso
Visibility: 10 km
Cloud details: Few Clouds 610 m
Muy nuboso 1067 m
2017/12/15 10:00 LEVT 151000Z 27002KT 9999 FEW020 BKN035 05/03 Q1012
 
LEBB - Bilbao/Sondica, Spain
Distance from station: NNO 235km
Actualización: 15/12/2017 11:00
Muy nuboso
Muy nuboso
 Viento del SO
Viento: SO 13 km/h
Temperatura: 9°C
Sensación frio: 7°C
Rocío: 7°C
Humedad: 87%
Barómetro: 1012 hPa
Clouds: Muy nuboso
Visibility: 10 km
Cloud details: Few Clouds 762 m
Parcialmente nuboso 1067 m
Muy nuboso 2134 m
2017/12/15 10:00 LEBB 151000Z 23007KT 180V290 9999 FEW025 SCT035 BKN070 09/07 Q1012 TEMPO 4000 RA
LESO - San Sebastian/Fu, Spain
Distance from station: N 231km
Actualización: 15/12/2017 11:00
Parcialmente nuboso
Parcialmente nuboso
 Viento del SO
Viento: SO 19 km/h
Temperatura: 8°C
Sensación frio: 4°C
Rocío: 6°C
Humedad: 87%
Barómetro: 1012 hPa
Clouds: Parcialmente nuboso
Visibility: 10 km
Cloud details: Few Clouds 762 m
Parcialmente nuboso 1219 m
2017/12/15 10:00 LESO 151000Z 23010KT 9999 FEW025 SCT040 08/06 Q1012
 
LEVD - Valladolid(Mil/C, Spain
Distance from station: ONO 239km
Actualización: 15/12/2017 11:00
Parcialmente nuboso
Parcialmente nuboso
 Viento del NO
Viento: NO 26 km/h
Temperatura: 6°C
Sensación frio: 2°C
Rocío: 2°C
Humedad: 76%
Barómetro: 1012 hPa
Clouds: Parcialmente nuboso
Visibility: 10 km
Cloud details: Parcialmente nuboso 1372 m
2017/12/15 10:00 LEVD 151000Z 32014KT 9999 SCT045 06/02 Q1012
LESA - Salamanca (civ/M, Spain
Distance from station: ONO 349km
Actualización: 15/12/2017 11:00
Muy nuboso
Muy nuboso
 Viento del ONO
Viento: ONO 20 km/h
Temperatura: 9°C
Sensación frio: 6°C
Rocío: 7°C
Humedad: 87%
Barómetro: 1013 hPa
Clouds: Muy nuboso
Visibility: 10 km
Cloud details: Few Clouds 366 m
Muy nuboso 457 m
2017/12/15 10:00 LESA 151000Z 30011KT 9999 FEW012 BKN015 09/07 Q1013
 
LEXJ - Santander/Paraya, Spain
Distance from station: NNO 247km
Actualización: 15/12/2017 11:00
Muy nuboso
Muy nuboso
 Viento del OSO
Viento: OSO 19 km/h
Temperatura: 9°C
Sensación frio: 6°C
Rocío: 7°C
Humedad: 87%
Barómetro: 1013 hPa
Clouds: Muy nuboso
Visibility: 10 km
Cloud details: Parcialmente nuboso 1219 m
Muy nuboso 2012 m
2017/12/15 10:00 LEXJ 151000Z 24010KT 9999 SCT040 BKN066 09/07 Q1013
LEAS - Asturias/Aviles, Spain
Distance from station: NO 214km
Actualización: 15/12/2017 11:00
Parcialmente nuboso
Parcialmente nuboso
 Viento del O
Viento: O 15 km/h
Temperatura: 10°C
Sensación frio: 8°C
Rocío: 6°C
Humedad: 76%
Barómetro: 1015 hPa
Clouds: Parcialmente nuboso
Visibility: 8 km
Cloud details: Parcialmente nuboso 610 m
Parcialmente nuboso 1219 m
2017/12/15 10:00 LEAS 151000Z 26008KT 210V290 8000 SCT020 SCT040 10/06 Q1015 NOSIG
 
LECO - La Coruna/Alvedr, Spain
Distance from station: ONO 222km
Actualización: 15/12/2017 11:00
Muy nuboso
Muy nuboso
 Viento del calm
Viento: Calma
Temperatura: 9°C
Rocío: 7°C
Humedad: 87%
Barómetro: 1017 hPa
Clouds: Muy nuboso
Visibility: 10 km
Cloud details: Few Clouds 671 m
Parcialmente nuboso 975 m
Muy nuboso 1219 m
2017/12/15 10:00 LECO 151000Z 00000KT 9999 FEW022 SCT032 BKN040 09/07 Q1017 NOSIG
LEVX - Vigo/Peinador, Spain
Distance from station: O 214km
Actualización: 15/12/2017 11:00
Few Clouds
Few Clouds
 Viento del NNE
Viento: NNE 6 km/h
Temperatura: 9°C
Rocío: 6°C
Humedad: 82%
Barómetro: 1016 hPa
Clouds: Few Clouds
Visibility: 10 km
Cloud details: Few Clouds 1646 m
2017/12/15 10:00 LEVX 151000Z 02003KT 310V070 9999 FEW054 09/06 Q1016 NOSIG